Time;durP1;ratioP1;P1;durP2;ratioP2;P2;SDS_P1;SDS_P2;PMS_P1;PMS_P2;Temp;Humidity;BMP_temperature;BMP_pressure;BME280_temperature;BME280_humidity;BME280_pressure;Samples;Min_cycle;Max_cycle;Signal;HPM_P1;HPM_P2
2022/10/02 00:00:35;;;;;;;11.32;2.78;;;;;;;14.24;67.32;99512.38;5112959;28;20098;-59
2022/10/02 00:03:24;;;;;;;14.68;2.55;;;;;;;14.20;67.65;99513.56;5113580;28;20109;-60
2022/10/02 00:06:02;;;;;;;13.27;2.70;;;;;;;14.24;67.51;99509.72;5113108;28;20134;-59
2022/10/02 00:08:33;;;;;;;14.13;2.72;;;;;;;14.24;67.44;99512.38;5113100;28;20055;-59
2022/10/02 00:11:16;;;;;;;16.55;3.33;;;;;;;14.26;67.53;99512.28;5112779;28;20044;-60
2022/10/02 00:13:59;;;;;;;11.38;2.53;;;;;;;14.23;67.88;99517.78;5111837;28;20044;-58
2022/10/02 00:16:47;;;;;;;12.05;2.50;;;;;;;14.22;67.91;99522.25;5111616;28;20052;-59
2022/10/02 00:19:18;;;;;;;11.63;2.92;;;;;;;14.25;67.62;99518.53;5111418;28;20047;-61
2022/10/02 00:22:13;;;;;;;13.43;2.83;;;;;;;14.23;68.13;99517.78;5111538;28;20094;-59
2022/10/02 00:24:53;;;;;;;10.65;2.97;;;;;;;14.24;68.15;99516.84;5108869;28;20278;-60
2022/10/02 00:27:45;;;;;;;13.20;2.80;;;;;;;14.22;67.88;99521.41;5108183;28;20283;-59
2022/10/02 00:30:15;;;;;;;15.93;2.95;;;;;;;14.26;68.00;99517.56;5106227;28;20052;-58
2022/10/02 00:33:05;;;;;;;9.52;2.80;;;;;;;14.23;68.24;99523.09;5111169;28;20560;-58
2022/10/02 00:35:51;;;;;;;12.05;2.63;;;;;;;14.23;68.25;99517.78;5111027;28;20436;-58
2022/10/02 00:38:28;;;;;;;21.52;3.42;;;;;;;14.27;68.24;99513.94;5111065;28;20086;-58
2022/10/02 00:41:26;;;;;;;14.48;3.25;;;;;;;14.23;68.42;99523.94;5112270;28;20553;-59
2022/10/02 00:44:33;;;;;;;15.68;3.53;;;;;;;14.23;68.47;99523.94;5112405;28;20559;-58
2022/10/02 00:47:11;;;;;;;12.38;2.75;;;;;;;14.25;68.51;99526.47;5103712;28;20142;-59
2022/10/02 00:49:57;;;;;;;14.95;3.33;;;;;;;14.25;68.45;99527.31;5111971;28;20086;-58
2022/10/02 00:52:33;;;;;;;13.93;2.92;;;;;;;14.25;68.62;99529.13;5112177;28;20087;-59
2022/10/02 00:55:27;;;;;;;9.43;2.75;;;;;;;14.25;68.71;99523.81;5112085;28;20093;-59
2022/10/02 00:57:57;;;;;;;14.57;3.28;;;;;;;14.28;68.63;99526.25;5112512;28;20056;-60
2022/10/02 01:00:23;;;;;;;11.60;2.92;;;;;;;14.29;68.42;99539.38;5111921;28;20071;-59
2022/10/02 01:03:05;;;;;;;14.02;3.47;;;;;;;14.30;68.97;99545.50;5111848;28;20516;-58
2022/10/02 01:05:32;;;;;;;11.60;3.25;;;;;;;14.35;68.90;99553.09;5110861;28;20134;-59
2022/10/02 01:08:00;;;;;;;11.40;2.80;;;;;;;14.37;69.00;99559.09;5110377;28;20101;-58
2022/10/02 01:10:27;;;;;;;11.65;2.63;;;;;;;14.40;69.30;99550.94;5111674;28;20048;-60
2022/10/02 01:12:55;;;;;;;13.27;3.08;;;;;;;14.43;69.11;99562.13;5110670;28;20076;-58
2022/10/02 01:15:32;;;;;;;13.07;3.22;;;;;;;14.46;69.39;99558.41;5110620;28;20051;-60
2022/10/02 01:18:01;;;;;;;12.98;3.42;;;;;;;14.52;69.11;99559.75;5111799;28;20079;-58
2022/10/02 01:20:40;;;;;;;13.65;3.40;;;;;;;14.53;69.11;99587.91;5110414;28;20054;-59
2022/10/02 01:23:14;;;;;;;14.95;3.35;;;;;;;14.58;69.11;99577.81;5110464;28;20052;-59
2022/10/02 01:25:41;;;;;;;10.68;2.97;;;;;;;14.60;68.91;99565.28;5111990;28;20081;-57
2022/10/02 01:28:07;;;;;;;12.13;2.78;;;;;;;14.62;68.99;99573.97;5111148;28;20520;-59
2022/10/02 01:30:37;;;;;;;17.38;3.15;;;;;;;14.62;69.02;99566.03;5111466;27;20501;-59
2022/10/02 01:33:04;;;;;;;15.13;3.42;;;;;;;14.63;68.81;99573.00;5110058;28;20043;-58
2022/10/02 01:35:34;;;;;;;15.88;3.30;;;;;;;14.62;69.08;99573.13;5111985;28;20549;-59
2022/10/02 01:38:07;;;;;;;11.85;2.83;;;;;;;14.59;69.69;99571.56;5111297;28;20047;-58
2022/10/02 01:40:36;;;;;;;11.63;2.90;;;;;;;14.60;69.07;99567.94;5110016;28;20079;-59
2022/10/02 01:43:07;;;;;;;14.30;3.70;;;;;;;14.59;69.35;99560.97;5110226;28;20047;-59
2022/10/02 01:45:40;;;;;;;12.90;3.45;;;;;;;14.60;69.58;99560.00;5111499;28;20047;-60
2022/10/02 01:48:15;;;;;;;16.47;3.33;;;;;;;14.56;69.78;99561.19;5111021;28;20476;-59
2022/10/02 01:50:50;;;;;;;12.30;3.00;;;;;;;14.57;69.72;99576.13;5111157;28;20343;-58
2022/10/02 01:53:35;;;;;;;13.20;3.13;;;;;;;14.54;70.12;99579.84;5111250;28;20082;-58
2022/10/02 01:56:20;;;;;;;14.43;3.17;;;;;;;14.54;70.09;99573.72;5111229;28;20465;-61
2022/10/02 01:59:17;;;;;;;13.05;3.70;;;;;;;14.53;70.37;99570.22;5110902;28;20050;-59
2022/10/02 02:02:01;;;;;;;13.18;3.42;;;;;;;14.54;70.31;99563.94;5111051;28;20548;-60
2022/10/02 02:04:40;;;;;;;12.75;3.72;;;;;;;14.57;70.12;99557.56;5110914;28;20564;-60
2022/10/02 02:07:15;;;;;;;12.40;3.90;;;;;;;14.56;70.24;99562.03;5111166;28;20047;-59
2022/10/02 02:10:22;;;;;;;15.75;4.25;;;;;;;14.55;70.56;99555.03;5111150;28;20078;-59
2022/10/02 02:13:01;;;;;;;13.43;4.53;;;;;;;14.56;70.41;99551.44;5098278;28;20056;-59
2022/10/02 02:15:36;;;;;;;9.68;4.07;;;;;;;14.59;70.11;99553.00;5110776;28;20116;-59
2022/10/02 02:18:10;;;;;;;20.67;4.90;;;;;;;14.59;70.07;99547.72;5109792;28;20078;-63
2022/10/02 02:20:52;;;;;;;15.13;4.30;;;;;;;14.56;70.67;99550.59;5114064;28;20096;-59
2022/10/02 02:23:27;;;;;;;22.17;5.13;;;;;;;14.57;70.40;99539.88;5115260;28;20043;-60
2022/10/02 02:26:01;;;;;;;18.25;5.00;;;;;;;14.58;70.24;99544.22;5115198;28;20047;-59
2022/10/02 02:28:31;;;;;;;13.82;4.00;;;;;;;14.58;70.32;99546.88;5114774;28;20079;-58
2022/10/02 02:31:05;;;;;;;16.58;4.53;;;;;;;14.59;70.12;99545.06;5113839;28;20047;-58
2022/10/02 02:33:48;;;;;;;14.77;4.40;;;;;;;14.56;70.50;99546.16;5114955;28;20109;-58
2022/10/02 02:36:18;;;;;;;16.58;4.60;;;;;;;14.61;70.58;99547.59;5113557;28;20093;-58
2022/10/02 02:38:50;;;;;;;12.13;4.05;;;;;;;14.61;70.35;99553.72;5113282;28;20576;-59
2022/10/02 02:41:23;;;;;;;13.00;4.22;;;;;;;14.60;70.35;99544.09;5113670;28;20090;-59
2022/10/02 02:43:58;;;;;;;16.90;4.15;;;;;;;14.58;70.46;99546.88;5113528;28;20036;-59
2022/10/02 02:47:02;;;;;;;12.05;3.25;;;;;;;14.58;70.58;99549.50;5114674;28;20511;-58
2022/10/02 02:49:26;;;;;;;15.25;4.07;;;;;;;14.61;70.67;99559.03;5114115;28;20052;-59
2022/10/02 02:51:56;;;;;;;15.13;3.90;;;;;;;14.61;70.62;99558.19;5113607;28;20059;-58
2022/10/02 02:54:33;;;;;;;11.60;4.18;;;;;;;14.59;70.72;99547.72;5115009;28;20051;-59
2022/10/02 02:57:03;;;;;;;14.60;3.75;;;;;;;14.62;70.51;99550.13;5113375;28;20078;-58
2022/10/02 02:59:32;;;;;;;16.35;4.18;;;;;;;14.63;70.50;99559.75;5114060;28;20075;-59
2022/10/02 03:01:59;;;;;;;14.13;3.97;;;;;;;14.64;70.41;99563.25;5114271;28;20489;-58
2022/10/02 03:04:26;;;;;;;15.40;3.17;;;;;;;14.65;70.56;99562.28;5114287;28;20495;-58
2022/10/02 03:06:59;;;;;;;17.48;3.65;;;;;;;14.64;70.54;99557.94;5114176;28;20610;-59
2022/10/02 03:09:31;;;;;;;14.75;3.70;;;;;;;14.65;70.34;99559.66;5114075;28;20086;-59
2022/10/02 03:12:03;;;;;;;16.02;3.95;;;;;;;14.65;70.40;99551.69;5114384;28;20184;-61
2022/10/02 03:14:48;;;;;;;14.30;3.75;;;;;;;14.66;70.15;99542.78;5113800;28;20105;-59
2022/10/02 03:17:52;;;;;;;14.60;3.45;;;;;;;14.60;70.35;99536.16;5114222;28;20044;-57
2022/10/02 03:20:38;;;;;;;14.07;3.03;;;;;;;14.58;70.03;99546.03;5113577;28;20063;-59
2022/10/02 03:23:26;;;;;;;12.35;3.55;;;;;;;14.60;69.76;99546.75;5112916;28;20047;-58
2022/10/02 03:26:01;;;;;;;13.90;3.15;;;;;;;14.54;70.10;99547.22;5114165;28;20047;-59
2022/10/02 03:28:40;;;;;;;14.13;3.08;;;;;;;14.50;70.03;99551.09;5113859;28;20096;-60
2022/10/02 03:31:23;;;;;;;10.90;3.15;;;;;;;14.49;69.54;99558.16;5112935;28;20074;-59
2022/10/02 03:33:52;;;;;;;14.40;3.63;;;;;;;14.45;69.77;99554.91;5112657;28;20090;-59
2022/10/02 03:36:21;;;;;;;15.18;3.15;;;;;;;14.42;69.82;99560.44;5113614;27;20048;-58
2022/10/02 03:38:50;;;;;;;11.60;3.20;;;;;;;14.40;69.75;99559.75;5113498;28;20073;-59
2022/10/02 03:41:36;;;;;;;13.10;3.53;;;;;;;14.37;69.77;99549.38;5112311;28;20039;-59
2022/10/02 03:44:03;;;;;;;8.63;2.83;;;;;;;14.33;69.69;99556.69;5113642;28;20142;-58
2022/10/02 03:46:29;;;;;;;12.23;3.22;;;;;;;14.32;70.00;99555.00;5113555;28;20056;-60
2022/10/02 03:48:56;;;;;;;13.82;2.83;;;;;;;14.30;70.09;99553.44;5113398;28;20478;-58
2022/10/02 03:51:23;;;;;;;13.88;2.95;;;;;;;14.28;70.00;99555.38;5113367;28;20499;-58
2022/10/02 03:53:51;;;;;;;13.82;3.15;;;;;;;14.26;70.06;99555.47;5113380;28;20097;-59
2022/10/02 03:56:37;;;;;;;12.07;3.33;;;;;;;14.22;70.16;99551.38;5113208;28;20650;-58
2022/10/02 03:59:13;;;;;;;10.15;2.63;;;;;;;14.21;70.12;99562.94;5113208;28;20252;-58
2022/10/02 04:01:45;;;;;;;11.98;2.58;;;;;;;14.19;69.99;99555.09;5113267;28;20461;-59
2022/10/02 04:04:22;;;;;;;7.88;2.60;;;;;;;14.18;70.09;99548.13;5113324;28;20138;-58
2022/10/02 04:07:03;;;;;;;9.73;2.83;;;;;;;14.13;70.05;99555.56;5113448;28;20051;-58
2022/10/02 04:09:43;;;;;;;8.50;2.50;;;;;;;14.12;70.13;99559.16;5111706;28;20048;-58
2022/10/02 04:12:15;;;;;;;10.50;2.25;;;;;;;14.12;69.95;99555.66;5112925;28;20048;-58
2022/10/02 04:15:00;;;;;;;9.33;2.27;;;;;;;14.06;70.25;99552.53;5112829;28;20500;-59
2022/10/02 04:17:50;;;;;;;7.65;2.42;;;;;;;14.06;70.19;99559.63;5113279;28;20545;-60
2022/10/02 04:20:43;;;;;;;11.38;2.70;;;;;;;14.03;70.31;99557.22;5112795;28;20130;-60
2022/10/02 04:23:19;;;;;;;11.00;2.70;;;;;;;14.06;70.00;99562.28;5112797;27;20497;-58
2022/10/02 04:25:51;;;;;;;11.35;3.03;;;;;;;14.03;70.27;99566.00;5111719;28;20094;-59
2022/10/02 04:28:25;;;;;;;9.75;3.20;;;;;;;14.02;70.28;99577.53;5112544;28;20741;-59
2022/10/02 04:30:52;;;;;;;10.68;3.50;;;;;;;14.02;70.31;99585.47;5112983;28;20052;-59
2022/10/02 04:33:21;;;;;;;15.48;3.75;;;;;;;14.01;70.69;99581.13;5112560;28;20120;-58
2022/10/02 04:35:51;;;;;;;12.90;4.30;;;;;;;14.03;70.68;99581.03;5112367;28;20504;-58
2022/10/02 04:38:42;;;;;;;13.75;4.50;;;;;;;14.00;71.27;99586.53;5112607;28;20055;-60
2022/10/02 04:41:17;;;;;;;18.90;4.68;;;;;;;14.05;70.66;99592.34;5111677;28;20051;-59
2022/10/02 04:43:55;;;;;;;12.07;4.10;;;;;;;14.04;71.11;99591.50;5112255;28;20464;-59
2022/10/02 04:46:48;;;;;;;12.85;5.10;;;;;;;14.08;71.26;99594.75;5112398;28;20055;-58
2022/10/02 04:49:36;;;;;;;14.45;4.15;;;;;;;14.10;71.23;99592.84;5112165;28;20547;-58
2022/10/02 04:52:40;;;;;;;11.32;4.40;;;;;;;14.10;71.39;99597.28;5110983;28;20145;-59
2022/10/02 04:55:25;;;;;;;10.32;4.60;;;;;;;14.17;70.99;99607.31;5110915;28;20492;-59
2022/10/02 04:58:23;;;;;;;11.57;3.97;;;;;;;14.16;71.19;99602.13;5112022;28;20134;-60
2022/10/02 05:01:02;;;;;;;13.48;5.00;;;;;;;14.16;71.02;99605.63;5112013;28;20096;-59
2022/10/02 05:03:40;;;;;;;11.90;4.00;;;;;;;14.16;70.81;99608.28;5112046;28;20097;-59
2022/10/02 05:06:29;;;;;;;13.23;4.55;;;;;;;14.13;70.88;99608.50;5110894;28;20047;-59
2022/10/02 05:08:58;;;;;;;9.20;4.20;;;;;;;14.15;70.81;99606.59;5112022;28;20071;-59
2022/10/02 05:11:53;;;;;;;17.88;5.22;;;;;;;14.14;70.95;99612.00;5111822;28;20055;-59
2022/10/02 05:14:35;;;;;;;11.88;5.05;;;;;;;14.14;70.93;99610.19;5111527;27;20090;-59
2022/10/02 05:17:29;;;;;;;11.20;4.55;;;;;;;14.13;71.14;99616.44;5112310;28;20075;-59
2022/10/02 05:20:17;;;;;;;13.95;5.30;;;;;;;14.16;71.17;99616.22;5111781;28;20090;-59
2022/10/02 05:23:03;;;;;;;12.35;4.93;;;;;;;14.14;71.27;99617.28;5111745;28;20138;-59
2022/10/02 05:25:38;;;;;;;11.23;4.88;;;;;;;14.14;71.41;99615.50;5111577;28;20072;-60
2022/10/02 05:28:30;;;;;;;12.23;5.47;;;;;;;14.16;71.59;99624.16;5111376;28;20478;-59
2022/10/02 05:31:08;;;;;;;12.80;5.15;;;;;;;14.19;71.79;99626.59;5111501;28;20047;-60
2022/10/02 05:33:51;;;;;;;15.35;5.63;;;;;;;14.23;71.75;99629.84;5111415;27;20533;-61
2022/10/02 05:36:43;;;;;;;9.13;5.22;;;;;;;14.26;71.67;99642.84;5111430;28;20079;-58
2022/10/02 05:39:21;;;;;;;12.73;5.15;;;;;;;14.30;71.56;99638.16;5111420;28;20110;-58
2022/10/02 05:41:59;;;;;;;9.13;5.00;;;;;;;14.32;71.51;99637.09;5111045;28;20051;-58
2022/10/02 05:44:41;;;;;;;12.02;5.32;;;;;;;14.32;71.43;99633.63;5109970;28;20052;-59
2022/10/02 05:47:22;;;;;;;14.40;5.93;;;;;;;14.35;71.37;99622.75;5111388;28;20483;-58
2022/10/02 05:49:58;;;;;;;14.57;5.95;;;;;;;14.38;71.38;99635.78;5109032;28;20097;-59
2022/10/02 05:52:39;;;;;;;17.40;5.85;;;;;;;14.39;71.49;99626.88;5109050;28;20071;-58
2022/10/02 05:55:20;;;;;;;15.23;5.60;;;;;;;14.40;71.47;99619.78;5109928;28;20388;-60
2022/10/02 05:57:53;;;;;;;14.95;5.53;;;;;;;14.40;71.63;99628.59;5110975;28;20083;-59
2022/10/02 06:00:34;;;;;;;17.08;5.88;;;;;;;14.40;71.93;99640.97;5109593;28;20048;-58
2022/10/02 06:03:16;;;;;;;19.85;6.00;;;;;;;14.41;71.88;99629.41;5109642;28;20052;-59
2022/10/02 06:05:49;;;;;;;13.30;6.10;;;;;;;14.46;71.76;99630.75;5110060;28;20051;-59
2022/10/02 06:08:21;;;;;;;12.65;5.95;;;;;;;14.49;71.84;99640.28;5109640;28;20092;-60
2022/10/02 06:10:52;;;;;;;17.23;7.13;;;;;;;14.52;71.89;99637.41;5110791;28;20090;-59
2022/10/02 06:13:28;;;;;;;14.50;6.25;;;;;;;14.54;72.01;99642.59;5111061;28;20052;-58
2022/10/02 06:16:10;;;;;;;18.17;6.85;;;;;;;14.54;72.12;99658.47;5111015;28;20043;-58
2022/10/02 06:18:42;;;;;;;14.15;6.78;;;;;;;14.59;72.09;99656.31;5111102;28;20521;-58
2022/10/02 06:21:27;;;;;;;15.77;6.15;;;;;;;14.59;72.42;99657.16;5109653;28;20104;-59
2022/10/02 06:23:59;;;;;;;18.70;6.90;;;;;;;14.65;72.13;99655.84;5110951;28;20105;-59
2022/10/02 06:26:38;;;;;;;18.53;7.30;;;;;;;14.67;72.31;99648.63;5111034;28;20092;-58
2022/10/02 06:29:13;;;;;;;22.13;7.60;;;;;;;14.72;72.41;99661.53;5109290;28;20096;-58
2022/10/02 06:32:03;;;;;;;19.33;6.93;;;;;;;14.75;72.53;99677.19;5110713;28;20055;-59
2022/10/02 06:34:30;;;;;;;13.85;6.53;;;;;;;14.81;72.24;99681.22;5111004;28;20048;-59
2022/10/02 06:37:12;;;;;;;16.05;6.55;;;;;;;14.81;72.52;99675.91;5110527;28;20086;-59
2022/10/02 06:40:03;;;;;;;16.95;7.00;;;;;;;14.84;72.54;99675.69;5110185;28;20130;-59
2022/10/02 06:42:42;;;;;;;19.05;6.93;;;;;;;14.89;72.49;99693.88;5110626;28;20077;-59
2022/10/02 06:45:34;;;;;;;21.38;7.63;;;;;;;14.91;72.44;99692.78;5111122;28;20130;-60
2022/10/02 06:48:06;;;;;;;22.98;7.63;;;;;;;14.96;72.23;99689.81;5110694;28;20139;-59
2022/10/02 06:50:55;;;;;;;19.80;7.13;;;;;;;14.95;72.46;99685.47;5110645;28;20132;-57
2022/10/02 06:53:49;;;;;;;16.08;7.13;;;;;;;14.96;72.33;99687.97;5110707;28;20047;-59
2022/10/02 06:56:22;;;;;;;19.25;7.05;;;;;;;15.00;71.89;99680.66;5110330;28;20054;-58
2022/10/02 06:59:06;;;;;;;14.30;7.00;;;;;;;15.02;72.03;99694.63;5110272;28;20492;-60
2022/10/02 07:01:55;;;;;;;17.30;6.88;;;;;;;15.01;72.26;99705.34;5110144;28;20112;-58
2022/10/02 07:04:44;;;;;;;14.90;6.65;;;;;;;15.04;72.19;99697.16;5111449;28;20078;-59
2022/10/02 07:07:25;;;;;;;17.30;7.35;;;;;;;15.04;72.25;99699.81;5114345;28;20100;-60
2022/10/02 07:10:09;;;;;;;19.13;7.35;;;;;;;15.04;72.29;99710.41;5114095;28;20582;-58
2022/10/02 07:12:48;;;;;;;17.38;6.80;;;;;;;15.07;72.29;99710.19;5114293;28;20100;-58
2022/10/02 07:15:24;;;;;;;17.77;6.55;;;;;;;15.09;72.37;99705.59;5114236;28;20089;-57
2022/10/02 07:17:51;;;;;;;18.40;6.82;;;;;;;15.12;72.33;99705.38;5114244;27;20492;-58
2022/10/02 07:20:20;;;;;;;20.55;6.68;;;;;;;15.13;72.59;99720.31;5113786;28;20087;-59
2022/10/02 07:22:50;;;;;;;18.10;6.82;;;;;;;15.17;72.71;99707.69;5113850;28;20509;-61
2022/10/02 07:25:44;;;;;;;20.17;7.30;;;;;;;15.17;72.93;99700.53;5113773;28;20473;-58
2022/10/02 07:28:26;;;;;;;18.73;6.78;;;;;;;15.24;72.71;99701.78;5112374;28;20086;-60
2022/10/02 07:31:00;;;;;;;22.58;6.75;;;;;;;15.29;72.78;99700.56;5112654;28;20057;-60
2022/10/02 07:34:06;;;;;;;19.58;7.43;;;;;;;15.31;72.89;99699.47;5113768;28;20075;-59
2022/10/02 07:36:51;;;;;;;19.20;7.25;;;;;;;15.38;72.95;99702.50;5113701;28;20056;-58
2022/10/02 07:39:41;;;;;;;19.65;6.57;;;;;;;15.44;72.70;99704.66;5113623;28;20075;-59
2022/10/02 07:42:37;;;;;;;15.60;6.93;;;;;;;15.48;72.66;99705.28;5113870;28;20134;-59
2022/10/02 07:45:26;;;;;;;21.13;7.47;;;;;;;15.54;72.52;99711.88;5106618;28;20503;-59
2022/10/02 07:48:30;;;;;;;18.48;6.97;;;;;;;15.57;72.48;99717.81;5113719;28;20062;-60
2022/10/02 07:54:10;;;;;;;18.75;6.13;;;;;;;15.66;72.64;99726.84;5113158;28;20084;-59
2022/10/02 07:56:38;;;;;;;19.42;7.50;;;;;;;15.74;72.76;99732.38;5112132;28;20135;-58
2022/10/02 07:59:11;;;;;;;17.75;6.57;;;;;;;15.79;72.81;99739.13;5113233;28;20056;-58
2022/10/02 08:01:40;;;;;;;19.02;7.13;;;;;;;15.86;72.98;99737.69;5113295;28;20044;-59
2022/10/02 08:04:17;;;;;;;19.20;6.88;;;;;;;15.93;72.75;99746.00;5113567;28;20051;-59
2022/10/02 08:06:48;;;;;;;17.00;6.82;;;;;;;16.00;72.81;99737.44;5113336;28;20104;-60
2022/10/02 08:09:26;;;;;;;19.58;6.28;;;;;;;16.06;72.68;99737.91;5111778;28;20051;-58
2022/10/02 08:11:59;;;;;;;19.17;7.38;;;;;;;16.13;72.45;99747.09;5113286;28;20043;-58
2022/10/02 08:14:41;;;;;;;17.70;6.75;;;;;;;16.17;71.89;99750.34;5111512;28;20586;-58
2022/10/02 08:17:33;;;;;;;17.33;6.43;;;;;;;16.22;72.09;99748.16;5110795;28;20116;-58
2022/10/02 08:20:46;;;;;;;18.55;6.65;;;;;;;16.25;71.76;99756.72;5112816;28;20530;-58
2022/10/02 08:23:32;;;;;;;17.33;6.32;;;;;;;16.31;71.76;99763.34;5089445;28;20051;-58
2022/10/02 08:26:07;;;;;;;16.08;6.43;;;;;;;16.36;71.92;99762.97;5112917;28;20043;-57
2022/10/02 08:28:43;;;;;;;16.23;6.05;;;;;;;16.37;72.00;99762.84;5111531;28;20051;-58
2022/10/02 08:31:11;;;;;;;20.38;6.82;;;;;;;16.45;72.17;99772.84;5112489;28;20052;-58
2022/10/02 08:33:39;;;;;;;22.55;6.97;;;;;;;16.49;71.77;99778.75;5111451;28;20482;-60
2022/10/02 08:36:24;;;;;;;17.88;6.28;;;;;;;16.52;71.77;99779.34;5112311;28;20100;-59
2022/10/02 08:39:17;;;;;;;18.00;6.10;;;;;;;16.51;71.33;99777.66;5112468;28;20504;-60
2022/10/02 08:42:04;;;;;;;19.13;6.13;;;;;;;16.55;71.48;99780.91;5111484;28;20108;-58
2022/10/02 08:44:56;;;;;;;16.45;5.70;;;;;;;16.61;71.29;99784.88;5110379;28;20048;-60
2022/10/02 08:47:47;;;;;;;17.80;5.70;;;;;;;16.66;71.51;99788.00;5107361;28;20100;-59
2022/10/02 08:50:51;;;;;;;16.55;5.85;;;;;;;16.69;71.65;99787.75;5110699;28;20079;-59
2022/10/02 08:53:43;;;;;;;21.38;6.72;;;;;;;16.78;72.02;99786.97;5110139;28;20044;-58
2022/10/02 08:56:16;;;;;;;15.43;5.70;;;;;;;16.90;72.19;99794.91;5111246;28;20055;-57
2022/10/02 08:59:07;;;;;;;16.98;6.05;;;;;;;16.93;71.29;99790.19;5111593;28;20262;-59
2022/10/02 09:01:49;;;;;;;17.20;5.63;;;;;;;17.01;70.99;99788.72;5111769;28;20083;-58
2022/10/02 09:04:28;;;;;;;21.00;5.07;;;;;;;17.05;70.77;99785.69;5112016;28;20040;-59
2022/10/02 09:07:03;;;;;;;16.73;5.75;;;;;;;17.11;70.68;99794.97;5110800;28;20048;-58
2022/10/02 09:09:57;;;;;;;17.27;5.68;;;;;;;17.14;70.69;99792.06;5111980;28;20108;-63
2022/10/02 09:12:42;;;;;;;17.48;5.10;;;;;;;17.21;70.71;99792.38;5111956;28;20048;-62
2022/10/02 09:15:51;;;;;;;20.20;5.60;;;;;;;17.18;70.05;99800.59;5112091;28;20051;-60
2022/10/02 09:18:47;;;;;;;17.52;4.70;;;;;;;17.19;69.73;99796.97;5101358;28;20094;-60
2022/10/02 09:21:17;;;;;;;18.15;5.18;;;;;;;17.24;70.22;99801.91;5106863;28;20095;-61
2022/10/02 09:24:02;;;;;;;15.60;4.60;;;;;;;17.25;70.25;99809.75;5112080;28;20541;-59
2022/10/02 09:26:44;;;;;;;15.65;4.85;;;;;;;17.31;70.50;99811.06;5111610;28;20083;-59
2022/10/02 09:29:29;;;;;;;15.85;4.53;;;;;;;17.36;70.93;99808.00;5109492;28;20043;-58
2022/10/02 09:32:11;;;;;;;15.07;4.22;;;;;;;17.48;71.80;99806.09;5102678;28;20488;-59
2022/10/02 09:35:15;;;;;;;16.52;4.20;;;;;;;17.58;70.38;99810.50;5110080;28;20104;-58
2022/10/02 09:37:52;;;;;;;11.45;4.20;;;;;;;17.71;69.61;99814.78;5110976;28;20480;-58
2022/10/02 09:40:57;;;;;;;13.27;3.75;;;;;;;17.78;69.71;99815.94;5111701;28;20051;-59
2022/10/02 09:44:02;;;;;;;12.10;3.80;;;;;;;17.87;69.21;99810.78;5111482;28;20035;-57
2022/10/02 09:46:58;;;;;;;16.50;4.03;;;;;;;17.95;69.22;99813.63;5111193;28;20327;-57
2022/10/02 09:49:56;;;;;;;15.75;3.42;;;;;;;18.03;68.99;99807.63;5111311;28;20086;-58
2022/10/02 09:52:22;;;;;;;12.82;3.78;;;;;;;18.12;69.51;99809.50;5111068;28;20082;-58
2022/10/02 09:55:14;;;;;;;17.35;3.67;;;;;;;18.13;67.58;99816.50;5111193;28;20079;-56
2022/10/02 09:57:53;;;;;;;11.20;2.95;;;;;;;18.15;68.04;99811.91;5110999;28;20048;-58
2022/10/02 10:01:10;;;;;;;15.25;3.83;;;;;;;18.18;67.94;99814.31;5110979;28;20126;-58
2022/10/02 10:03:55;;;;;;;11.00;3.00;;;;;;;18.25;68.28;99803.94;5047875;28;20146;-58
2022/10/02 10:07:01;;;;;;;21.13;3.92;;;;;;;18.29;68.09;99813.34;5048007;28;20068;-57
2022/10/02 10:09:56;;;;;;;15.43;3.17;;;;;;;18.36;67.92;99814.47;5108174;28;20138;-61
2022/10/02 10:13:02;;;;;;;11.35;3.25;;;;;;;18.45;68.03;99820.81;5111091;28;20087;-59
2022/10/02 10:16:21;;;;;;;9.00;2.80;;;;;;;18.55;67.88;99820.84;5111405;28;20055;-58
2022/10/02 10:19:01;;;;;;;12.07;3.15;;;;;;;18.68;66.97;99823.22;5108965;28;20055;-60
2022/10/02 10:21:43;;;;;;;13.23;3.58;;;;;;;18.80;67.30;99820.44;5111344;28;20052;-58
2022/10/02 10:24:38;;;;;;;11.80;2.28;;;;;;;18.86;66.79;99833.19;5110963;28;20408;-59
2022/10/02 10:27:15;;;;;;;8.68;2.45;;;;;;;18.96;66.04;99830.53;5110876;28;20056;-58
2022/10/02 10:30:14;;;;;;;11.57;2.28;;;;;;;19.01;65.10;99826.47;5110537;28;20083;-60
2022/10/02 10:32:59;;;;;;;10.82;2.33;;;;;;;19.07;64.36;99834.94;5110789;28;20047;-58
2022/10/02 10:36:03;;;;;;;10.95;2.65;;;;;;;19.11;64.37;99839.00;5109168;28;20065;-58
2022/10/02 10:38:36;;;;;;;7.13;1.90;;;;;;;19.17;64.40;99851.75;5107821;28;20143;-59
2022/10/02 10:41:54;;;;;;;9.77;2.60;;;;;;;19.13;63.75;99848.53;5114412;28;20086;-61
2022/10/02 10:44:39;;;;;;;8.40;2.25;;;;;;;19.19;64.85;99851.63;5080929;27;20039;-59
2022/10/02 10:47:32;;;;;;;7.25;1.70;;;;;;;19.13;62.85;99843.22;5114829;28;20101;-58
2022/10/02 10:50:23;;;;;;;7.13;1.85;;;;;;;19.15;62.21;99853.75;5113075;28;20093;-58
2022/10/02 10:53:15;;;;;;;8.90;1.92;;;;;;;19.13;61.53;99847.69;5113286;28;20145;-59
2022/10/02 10:56:05;;;;;;;7.17;1.80;;;;;;;19.12;62.01;99856.69;5114617;28;20488;-59
2022/10/02 10:58:56;;;;;;;6.13;1.67;;;;;;;19.10;61.69;99861.34;5114248;28;20781;-59
2022/10/02 11:01:44;;;;;;;10.75;2.08;;;;;;;19.05;61.43;99860.84;5110519;28;20100;-59
2022/10/02 11:05:06;;;;;;;9.52;2.35;;;;;;;19.04;62.32;99857.38;5108900;28;20109;-59
2022/10/02 11:07:39;;;;;;;9.32;1.85;;;;;;;19.12;62.16;99862.03;5113974;27;20104;-59
2022/10/02 11:10:30;;;;;;;7.20;1.98;;;;;;;19.18;62.03;99860.63;5112926;28;20083;-59
2022/10/02 11:13:09;;;;;;;12.05;2.30;;;;;;;19.39;64.28;99857.78;5114155;28;20089;-58
2022/10/02 11:16:05;;;;;;;7.63;2.08;;;;;;;19.78;63.66;99862.22;5109854;28;20043;-59
2022/10/02 11:18:51;;;;;;;5.85;1.92;;;;;;;20.30;64.97;99851.03;5114034;28;20135;-58
2022/10/02 11:21:42;;;;;;;5.32;1.65;;;;;;;20.93;65.24;99848.56;5114149;28;20051;-59
2022/10/02 11:24:49;;;;;;;10.38;2.17;;;;;;;21.72;62.36;99858.56;5114081;28;20043;-59
2022/10/02 11:27:22;;;;;;;5.20;1.88;;;;;;;22.42;61.71;99858.53;5093031;28;20120;-60
2022/10/02 11:29:53;;;;;;;7.32;1.92;;;;;;;22.98;61.82;99863.38;5113679;28;20413;-60
2022/10/02 11:32:50;;;;;;;7.05;2.00;;;;;;;23.49;57.11;99870.47;5113837;28;20059;-59
2022/10/02 11:35:29;;;;;;;5.18;1.52;;;;;;;23.97;54.84;99868.84;5113958;28;20098;-58
2022/10/02 11:38:21;;;;;;;9.50;2.38;;;;;;;24.38;55.16;99865.19;5113868;28;20090;-60
2022/10/02 11:40:57;;;;;;;7.47;1.55;;;;;;;24.78;55.02;99862.44;5113827;28;20086;-59
2022/10/02 11:43:58;;;;;;;5.53;1.88;;;;;;;24.99;51.09;99864.50;5111631;28;20048;-58
2022/10/02 11:46:52;;;;;;;8.48;1.80;;;;;;;25.15;45.85;99862.72;5113638;28;20067;-60
2022/10/02 11:49:59;;;;;;;6.22;1.92;;;;;;;25.15;48.56;99862.72;5113563;28;20082;-61
2022/10/02 11:52:47;;;;;;;5.07;1.63;;;;;;;25.17;49.96;99855.28;5113281;27;20108;-59
2022/10/02 11:55:22;;;;;;;5.30;1.63;;;;;;;25.32;50.85;99858.00;5113052;28;20053;-66
2022/10/02 11:57:52;;;;;;;10.05;2.20;;;;;;;25.56;50.11;99854.28;5113240;28;20044;-61
2022/10/02 12:01:04;;;;;;;5.85;1.60;;;;;;;25.87;48.60;99855.97;5113334;28;20502;-59
2022/10/02 12:03:49;;;;;;;5.15;1.35;;;;;;;26.30;49.45;99859.88;5112978;28;20043;-60
2022/10/02 12:06:51;;;;;;;4.97;1.40;;;;;;;26.58;47.00;99863.72;5112845;28;20078;-61
2022/10/02 12:09:34;;;;;;;5.60;1.80;;;;;;;26.92;50.09;99868.44;5081050;28;20083;-60
2022/10/02 12:12:15;;;;;;;4.88;1.58;;;;;;;27.12;45.98;99869.69;5112554;28;20112;-59
2022/10/02 12:14:55;;;;;;;4.90;1.35;;;;;;;27.15;45.86;99874.72;5112832;27;20044;-61
2022/10/02 12:17:36;;;;;;;6.38;1.73;;;;;;;27.03;45.06;99874.41;5111724;28;20071;-61
2022/10/02 12:27:13;;;;;;;7.47;1.92;;;;;;;26.23;46.28;99875.94;5112609;28;20086;-61
2022/10/02 12:29:59;;;;;;;7.60;1.65;;;;;;;26.22;45.62;99878.84;5049224;28;20100;-62
2022/10/02 12:32:48;;;;;;;5.20;1.80;;;;;;;26.24;43.11;99884.91;5112296;28;20441;-61
2022/10/02 12:35:25;;;;;;;5.93;1.58;;;;;;;26.36;45.29;99896.06;5111646;28;20112;-62
2022/10/02 12:38:18;;;;;;;5.55;1.77;;;;;;;26.54;47.13;99891.09;5110977;28;20135;-62
2022/10/02 12:41:16;;;;;;;4.38;1.30;;;;;;;26.79;46.46;99889.91;5110883;28;20096;-60
2022/10/02 12:44:04;;;;;;;4.88;1.45;;;;;;;27.03;46.20;99899.53;5112833;28;20381;-60
2022/10/02 12:46:31;;;;;;;3.72;1.17;;;;;;;27.28;48.05;99899.13;5112425;28;20044;-61